createdAt,value
2023-04-25T00:01:57.800Z,58.95
2023-04-25T00:04:24.985Z,58.95
2023-04-25T00:06:53.419Z,59.20
2023-04-25T00:09:20.312Z,59.52
2023-04-25T00:11:47.157Z,59.83
2023-04-25T00:15:27.959Z,60.59
2023-04-25T00:17:54.796Z,59.79
2023-04-25T00:20:23.034Z,59.71
2023-04-25T00:22:50.564Z,59.74
2023-04-25T00:25:17.642Z,59.90
2023-04-25T00:27:44.437Z,60.05
2023-04-25T00:30:12.368Z,60.25
2023-04-25T00:32:39.202Z,60.26
2023-04-25T00:35:06.977Z,60.46
2023-04-25T00:37:33.835Z,60.26
2023-04-25T00:40:00.699Z,60.39
2023-04-25T00:42:27.505Z,60.40
2023-04-25T00:44:54.414Z,60.31
2023-04-25T00:47:21.256Z,60.35
2023-04-25T00:49:48.321Z,60.45
2023-04-25T00:52:15.583Z,60.78
2023-04-25T00:54:42.432Z,60.93
2023-04-25T00:57:09.556Z,60.86
2023-04-25T00:59:36.545Z,60.62
2023-04-25T01:02:03.422Z,60.77
2023-04-25T01:04:30.398Z,60.76
2023-04-25T01:06:57.857Z,60.57
2023-04-25T01:09:24.983Z,60.70
2023-04-25T01:11:51.852Z,60.65
2023-04-25T01:14:18.673Z,60.60
2023-04-25T01:16:46.032Z,60.78
2023-04-25T01:19:13.424Z,60.92
2023-04-25T01:21:40.286Z,60.96
2023-04-25T01:24:07.400Z,61.04
2023-04-25T01:26:34.307Z,61.06
2023-04-25T01:29:01.265Z,61.08
2023-04-25T01:31:28.992Z,60.88
2023-04-25T01:33:55.857Z,60.87
2023-04-25T01:36:22.974Z,60.86
2023-04-25T01:38:50.116Z,60.70
2023-04-25T01:41:18.130Z,60.61
2023-04-25T01:43:45.143Z,60.53
2023-04-25T01:46:12.760Z,60.59
2023-04-25T01:48:39.581Z,60.53
2023-04-25T01:51:07.395Z,60.68
2023-04-25T01:53:34.594Z,60.76
2023-04-25T01:56:02.607Z,60.79
2023-04-25T01:58:33.773Z,61.00
2023-04-25T02:01:27.087Z,61.10
2023-04-25T02:04:08.958Z,61.10
2023-04-25T02:06:37.288Z,61.09
2023-04-25T02:09:04.222Z,61.02
2023-04-25T02:11:31.171Z,60.96
2023-04-25T02:14:16.863Z,60.92
2023-04-25T02:17:06.885Z,60.92
2023-04-25T02:19:33.865Z,60.79
2023-04-25T02:22:01.116Z,60.90
2023-04-25T02:24:29.049Z,60.92
2023-04-25T02:26:57.170Z,60.80
2023-04-25T02:29:24.106Z,60.85
2023-04-25T02:31:51.350Z,60.75
2023-04-25T02:34:18.287Z,60.76
2023-04-25T02:36:45.115Z,61.00
2023-04-25T02:39:12.012Z,61.28
2023-04-25T02:41:39.296Z,61.54
2023-04-25T02:44:06.332Z,61.66
2023-04-25T02:49:05.029Z,61.81
2023-04-25T02:51:32.202Z,62.01
2023-04-25T02:53:59.735Z,61.98
2023-04-25T02:56:27.379Z,61.86
2023-04-25T02:58:54.804Z,61.83
2023-04-25T03:01:22.261Z,61.85
2023-04-25T03:03:49.789Z,61.76
2023-04-25T03:06:17.037Z,61.68
2023-04-25T03:08:44.521Z,61.61
2023-04-25T03:11:11.738Z,61.68
2023-04-25T03:13:38.701Z,61.65
2023-04-25T03:16:06.554Z,61.57
2023-04-25T03:18:33.476Z,61.59
2023-04-25T03:21:00.616Z,61.58
2023-04-25T03:23:27.525Z,61.72
2023-04-25T03:25:54.333Z,62.02
2023-04-25T03:28:21.595Z,62.21
2023-04-25T03:30:48.554Z,62.32
2023-04-25T03:33:15.674Z,62.26
2023-04-25T03:35:43.675Z,62.08
2023-04-25T03:38:10.953Z,62.05
2023-04-25T03:40:39.645Z,61.98
2023-04-25T03:43:16.347Z,62.07
2023-04-25T03:45:48.236Z,61.90
2023-04-25T03:48:15.791Z,61.83
2023-04-25T03:50:43.547Z,61.86
2023-04-25T03:53:10.352Z,61.71
2023-04-25T03:55:57.169Z,61.80
2023-04-25T03:58:25.435Z,61.87
2023-04-25T04:00:52.305Z,61.84
2023-04-25T04:03:19.760Z,61.70
2023-04-25T04:05:47.695Z,61.80
2023-04-25T04:08:14.656Z,61.96
2023-04-25T04:10:42.469Z,61.78
2023-04-25T04:13:09.622Z,61.78
2023-04-25T04:15:36.845Z,61.99
2023-04-25T04:18:04.054Z,62.19
2023-04-25T04:20:31.614Z,62.14
2023-04-25T04:22:58.483Z,61.99
2023-04-25T04:25:25.692Z,62.06
2023-04-25T04:28:22.883Z,62.27
2023-04-25T04:31:02.146Z,62.55
2023-04-25T04:33:29.319Z,62.58
2023-04-25T04:36:00.124Z,62.56
2023-04-25T04:38:27.842Z,62.65
2023-04-25T04:40:57.329Z,62.72
2023-04-25T04:43:44.491Z,62.66
2023-04-25T04:46:43.209Z,62.43
2023-04-25T04:49:33.644Z,62.15
2023-04-25T04:52:21.117Z,61.94
2023-04-25T04:54:53.723Z,61.64
2023-04-25T04:57:43.680Z,61.38
2023-04-25T05:00:34.385Z,60.76
2023-04-25T05:03:17.567Z,60.33
2023-04-25T05:06:06.534Z,59.99
2023-04-25T05:08:53.950Z,59.44
2023-04-25T05:11:38.103Z,59.09
2023-04-25T05:14:25.017Z,58.77
2023-04-25T05:17:09.472Z,58.59
2023-04-25T05:19:42.334Z,58.53
2023-04-25T05:22:27.899Z,58.39
2023-04-25T05:25:17.856Z,57.98
2023-04-25T05:27:58.233Z,57.45
2023-04-25T05:30:45.435Z,57.08
2023-04-25T05:33:18.555Z,56.57
2023-04-25T05:35:45.975Z,56.55
2023-04-25T05:38:12.794Z,56.43
2023-04-25T05:40:58.510Z,56.20
2023-04-25T05:43:52.072Z,56.17
2023-04-25T05:46:24.434Z,56.08
2023-04-25T05:49:26.629Z,55.93
2023-04-25T05:51:53.601Z,55.57
2023-04-25T05:54:38.983Z,55.37
2023-04-25T05:57:05.879Z,55.22
2023-04-25T05:59:32.924Z,54.78
2023-04-25T06:02:00.011Z,54.49
2023-04-25T06:04:27.700Z,54.15
2023-04-25T06:06:54.774Z,54.09
2023-04-25T06:09:22.784Z,53.69
2023-04-25T06:11:49.824Z,53.11
2023-04-25T06:14:17.468Z,52.94
2023-04-25T06:16:47.731Z,52.91
2023-04-25T06:19:14.626Z,52.97
2023-04-25T06:21:44.226Z,52.42
2023-04-25T06:24:11.305Z,52.26
2023-04-25T06:26:38.222Z,51.97
2023-04-25T06:29:05.386Z,51.80
2023-04-25T06:31:34.093Z,51.60
2023-04-25T06:34:01.351Z,51.37
2023-04-25T06:36:28.830Z,51.00
2023-04-25T06:39:00.298Z,50.75
2023-04-25T06:41:27.143Z,50.62
2023-04-25T06:43:58.027Z,50.43
2023-04-25T06:46:39.305Z,49.95
2023-04-25T06:49:06.426Z,49.74
2023-04-25T06:51:33.790Z,49.33
2023-04-25T06:54:01.110Z,49.05
2023-04-25T06:56:32.094Z,48.55
2023-04-25T06:59:06.001Z,48.27
2023-04-25T07:01:37.999Z,48.04
2023-04-25T07:04:08.819Z,47.91
2023-04-25T07:06:43.486Z,47.42
2023-04-25T07:09:13.951Z,46.69
2023-04-25T07:11:42.153Z,46.79
2023-04-25T07:14:09.187Z,46.38
2023-04-25T07:16:36.128Z,45.92
2023-04-25T07:19:03.330Z,45.77
2023-04-25T07:21:32.045Z,45.84
2023-04-25T07:24:01.056Z,45.58
2023-04-25T07:26:31.782Z,45.89
2023-04-25T07:29:17.433Z,45.24
2023-04-25T07:31:44.344Z,44.85
2023-04-25T07:34:11.303Z,44.41
2023-04-25T07:36:38.847Z,43.93
2023-04-25T07:39:05.986Z,43.47
2023-04-25T07:41:33.057Z,42.83
2023-04-25T07:44:00.031Z,42.92
2023-04-25T07:46:27.212Z,43.12
2023-04-25T07:48:54.381Z,42.54
2023-04-25T07:51:23.272Z,41.84
2023-04-25T07:53:52.434Z,41.77
2023-04-25T07:56:20.903Z,42.09
2023-04-25T07:58:48.273Z,41.88
2023-04-25T08:01:15.491Z,41.81
2023-04-25T08:03:55.173Z,41.74
2023-04-25T08:06:54.930Z,41.78
2023-04-25T08:09:28.210Z,41.58
2023-04-25T08:11:56.031Z,40.99
2023-04-25T08:14:26.758Z,40.57
2023-04-25T08:16:53.997Z,40.43
2023-04-25T08:19:21.106Z,39.96
2023-04-25T08:21:48.071Z,39.72
2023-04-25T08:24:17.929Z,39.75
2023-04-25T08:26:44.925Z,39.49
2023-04-25T08:29:15.859Z,39.07
2023-04-25T08:31:43.596Z,39.12
2023-04-25T08:34:10.859Z,39.31
2023-04-25T08:36:45.944Z,38.77
2023-04-25T08:39:31.275Z,38.14
2023-04-25T08:42:16.952Z,38.20
2023-04-25T08:44:44.209Z,38.26
2023-04-25T08:47:11.482Z,38.22
2023-04-25T08:49:51.404Z,37.91
2023-04-25T08:52:18.602Z,37.63
2023-04-25T08:54:45.891Z,37.02
2023-04-25T08:57:13.035Z,36.56
2023-04-25T08:59:40.745Z,36.41
2023-04-25T09:02:09.443Z,36.01
2023-04-25T09:04:36.512Z,36.15
2023-04-25T09:07:03.558Z,36.59
2023-04-25T09:09:30.568Z,36.33
2023-04-25T09:11:58.167Z,35.79
2023-04-25T09:14:27.062Z,36.06
2023-04-25T09:17:06.347Z,36.33
2023-04-25T09:19:41.996Z,35.80
2023-04-25T09:22:16.994Z,35.44
2023-04-25T09:24:45.251Z,35.34
2023-04-25T09:27:13.650Z,35.24
2023-04-25T09:29:42.003Z,35.23
2023-04-25T09:32:22.506Z,35.26
2023-04-25T09:34:55.034Z,35.12
2023-04-25T09:37:27.365Z,34.94
2023-04-25T09:40:07.344Z,35.29
2023-04-25T09:42:36.565Z,35.12
2023-04-25T09:45:03.867Z,35.18
2023-04-25T09:47:33.968Z,35.40
2023-04-25T09:50:01.281Z,35.42
2023-04-25T09:52:28.132Z,35.41
2023-04-25T09:55:13.115Z,34.85
2023-04-25T09:57:40.978Z,34.62
2023-04-25T10:00:12.034Z,34.76
2023-04-25T10:02:42.465Z,33.80
2023-04-25T10:05:10.580Z,34.21
2023-04-25T10:07:41.507Z,34.03
2023-04-25T10:10:16.651Z,33.12
2023-04-25T10:12:45.321Z,32.77
2023-04-25T10:15:12.227Z,32.75
2023-04-25T10:17:39.237Z,33.02
2023-04-25T10:20:13.663Z,33.08
2023-04-25T10:22:45.202Z,32.69
2023-04-25T10:25:12.301Z,31.97
2023-04-25T10:27:39.994Z,31.90
2023-04-25T10:30:13.814Z,31.37
2023-04-25T10:32:40.786Z,31.73
2023-04-25T10:35:17.456Z,31.51
2023-04-25T10:38:06.870Z,31.28
2023-04-25T10:40:34.260Z,31.22
2023-04-25T10:43:29.213Z,30.91
2023-04-25T10:45:56.077Z,30.54
2023-04-25T10:48:49.144Z,30.22
2023-04-25T10:51:37.148Z,30.08
2023-04-25T10:54:10.699Z,30.49
2023-04-25T10:56:38.998Z,31.11
2023-04-25T10:59:10.993Z,31.18
2023-04-25T11:01:42.551Z,31.17
2023-04-25T11:04:23.006Z,30.89
2023-04-25T11:07:06.360Z,30.51
2023-04-25T11:09:35.259Z,29.82
2023-04-25T11:12:02.114Z,29.79
2023-04-25T11:14:29.159Z,29.87
2023-04-25T11:17:00.371Z,30.03
2023-04-25T11:19:28.287Z,30.19
2023-04-25T11:21:59.154Z,30.40
2023-04-25T11:24:33.434Z,30.63
2023-04-25T11:27:00.273Z,31.06
2023-04-25T11:29:34.831Z,30.78
2023-04-25T11:32:02.365Z,31.10
2023-04-25T11:34:31.927Z,30.55
2023-04-25T11:36:59.126Z,30.43
2023-04-25T11:39:26.256Z,30.28
2023-04-25T11:41:53.880Z,30.42
2023-04-25T11:44:21.011Z,30.43
2023-04-25T11:46:48.343Z,30.61
2023-04-25T11:49:15.992Z,31.13
2023-04-25T11:51:44.343Z,31.21
2023-04-25T11:54:13.148Z,31.30
2023-04-25T11:56:43.775Z,30.58
2023-04-25T11:59:11.608Z,30.23
2023-04-25T12:01:41.959Z,30.08
2023-04-25T12:04:19.007Z,29.68
2023-04-25T12:06:49.694Z,28.92
2023-04-25T12:09:19.574Z,28.66
2023-04-25T12:11:48.183Z,28.92
2023-04-25T12:14:31.044Z,28.79
2023-04-25T12:17:00.700Z,28.79
2023-04-25T12:19:29.281Z,28.65
2023-04-25T12:21:58.825Z,28.46
2023-04-25T12:24:28.435Z,28.75
2023-04-25T12:27:06.306Z,28.49
2023-04-25T12:29:38.548Z,28.31
2023-04-25T12:33:03.873Z,28.56
2023-04-25T12:35:31.849Z,28.72
2023-04-25T12:37:58.725Z,29.40
2023-04-25T12:40:25.842Z,29.51
2023-04-25T12:42:52.720Z,29.32
2023-04-25T12:45:19.559Z,29.19
2023-04-25T12:47:46.878Z,29.34
2023-04-25T12:50:14.036Z,28.94
2023-04-25T12:52:40.834Z,28.16
2023-04-25T12:55:07.823Z,27.55
2023-04-25T12:57:34.692Z,27.06
2023-04-25T13:00:01.578Z,26.91
2023-04-25T13:02:28.558Z,25.92
2023-04-25T13:04:55.503Z,26.17
2023-04-25T13:07:22.263Z,25.97
2023-04-25T13:09:49.177Z,26.76
2023-04-25T13:12:16.646Z,27.33
2023-04-25T13:14:43.458Z,26.92
2023-04-25T13:17:10.383Z,26.60
2023-04-25T13:19:37.158Z,25.90
2023-04-25T13:22:05.374Z,26.20
2023-04-25T13:24:32.304Z,26.01
2023-04-25T13:26:59.250Z,24.39
2023-04-25T13:29:26.086Z,24.81
2023-04-25T13:31:53.037Z,24.33
2023-04-25T13:34:19.879Z,23.81
2023-04-25T13:36:47.103Z,24.05
2023-04-25T13:39:14.585Z,23.83
2023-04-25T13:41:41.620Z,22.81
2023-04-25T13:44:08.529Z,20.24
2023-04-25T13:46:46.232Z,19.21
2023-04-25T13:49:14.284Z,18.28
2023-04-25T13:51:41.645Z,17.13
2023-04-25T13:54:08.753Z,15.93
2023-04-25T13:56:35.749Z,14.98
2023-04-25T13:59:02.692Z,14.63
2023-04-25T14:01:31.627Z,13.76
2023-04-25T14:03:58.706Z,13.48
2023-04-25T14:06:26.395Z,12.98
2023-04-25T14:08:53.200Z,12.56
2023-04-25T14:11:20.214Z,12.76
2023-04-25T14:13:47.333Z,12.79
2023-04-25T14:16:14.214Z,12.36
2023-04-25T14:18:41.119Z,11.84
2023-04-25T14:21:08.008Z,11.76
2023-04-25T14:23:34.908Z,11.88
2023-04-25T14:26:01.861Z,11.17
2023-04-25T14:28:28.715Z,10.94
2023-04-25T14:30:55.736Z,10.83
2023-04-25T14:33:22.908Z,10.76
2023-04-25T14:35:49.809Z,10.56
2023-04-25T14:38:16.654Z,10.61
2023-04-25T14:40:43.600Z,10.48
2023-04-25T14:43:10.607Z,10.05
2023-04-25T14:45:37.437Z,10.08
2023-04-25T14:48:04.610Z,10.02
2023-04-25T14:50:31.767Z,10.00
2023-04-25T14:53:00.198Z,10.06
2023-04-25T14:55:30.076Z,10.00
2023-04-25T14:57:57.649Z,9.98
2023-04-25T15:00:26.220Z,10.03
2023-04-25T15:02:53.373Z,10.40
2023-04-25T15:05:21.142Z,10.74
2023-04-25T15:07:49.010Z,11.12
2023-04-25T15:10:17.234Z,12.01
2023-04-25T15:12:45.646Z,12.95
2023-04-25T15:15:22.506Z,13.11
2023-04-25T15:17:52.680Z,12.92
2023-04-25T15:20:19.572Z,13.01
2023-04-25T15:22:46.960Z,12.88
2023-04-25T15:25:13.892Z,12.58
2023-04-25T15:27:45.087Z,12.24
2023-04-25T15:30:13.640Z,12.05
2023-04-25T15:32:40.616Z,11.65
2023-04-25T15:35:07.806Z,11.26
2023-04-25T15:37:34.956Z,11.20
2023-04-25T15:40:14.222Z,11.27
2023-04-25T15:42:54.210Z,11.52
2023-04-25T15:45:26.401Z,11.75
2023-04-25T15:47:55.170Z,11.97
2023-04-25T15:50:22.394Z,12.27
2023-04-25T15:52:50.233Z,12.31
2023-04-25T15:55:17.556Z,12.26
2023-04-25T15:57:44.464Z,12.27
2023-04-25T16:00:13.277Z,12.49
2023-04-25T16:02:40.835Z,12.45
2023-04-25T16:05:09.107Z,12.71
2023-04-25T16:07:36.380Z,12.84
2023-04-25T16:10:03.486Z,13.03
2023-04-25T16:12:31.182Z,13.21
2023-04-25T16:14:58.424Z,13.27
2023-04-25T16:17:25.917Z,13.26
2023-04-25T16:19:52.767Z,13.81
2023-04-25T16:22:19.611Z,13.98
2023-04-25T16:24:46.547Z,14.16
2023-04-25T16:27:13.401Z,14.24
2023-04-25T16:29:41.371Z,14.45
2023-04-25T16:32:08.265Z,14.65
2023-04-25T16:34:35.201Z,15.15
2023-04-25T16:37:02.101Z,15.69
2023-04-25T16:39:28.939Z,15.97
2023-04-25T16:41:55.866Z,16.53
2023-04-25T16:44:22.708Z,17.36
2023-04-25T16:46:49.608Z,18.26
2023-04-25T16:49:16.594Z,18.74
2023-04-25T16:51:43.494Z,19.34
2023-04-25T16:54:10.360Z,20.11
2023-04-25T16:56:37.375Z,20.63
2023-04-25T16:59:04.236Z,21.03
2023-04-25T17:01:32.964Z,21.50
2023-04-25T17:04:00.203Z,21.79
2023-04-25T17:06:27.458Z,22.28
2023-04-25T17:08:54.633Z,22.66
2023-04-25T17:11:21.624Z,22.88
2023-04-25T17:13:48.510Z,23.60
2023-04-25T17:16:18.590Z,24.20
2023-04-25T17:18:45.424Z,24.39
2023-04-25T17:21:12.307Z,24.64
2023-04-25T17:23:44.906Z,25.01
2023-04-25T17:26:14.848Z,25.45
2023-04-25T17:28:42.293Z,25.48
2023-04-25T17:31:09.834Z,25.53
2023-04-25T17:33:36.888Z,25.84
2023-04-25T17:36:05.386Z,26.13
2023-04-25T17:38:32.823Z,26.37
2023-04-25T17:40:59.778Z,26.71
2023-04-25T17:43:27.726Z,27.45
2023-04-25T17:45:54.757Z,27.75
2023-04-25T17:48:25.051Z,27.99
2023-04-25T17:50:51.888Z,28.37
2023-04-25T17:53:18.738Z,28.94
2023-04-25T17:55:45.682Z,29.38
2023-04-25T17:58:12.573Z,29.67
2023-04-25T18:00:39.520Z,30.19
2023-04-25T18:03:07.035Z,30.34
2023-04-25T18:05:33.936Z,31.13
2023-04-25T18:08:00.940Z,31.55
2023-04-25T18:10:27.783Z,31.90
2023-04-25T18:12:54.829Z,32.20
2023-04-25T18:15:23.090Z,32.16
2023-04-25T18:17:50.325Z,32.04
2023-04-25T18:20:17.217Z,31.91
2023-04-25T18:22:44.769Z,32.19
2023-04-25T18:25:11.774Z,32.66
2023-04-25T18:27:38.869Z,32.88
2023-04-25T18:30:07.154Z,34.05
2023-04-25T18:32:34.058Z,34.53
2023-04-25T18:35:01.136Z,34.57
2023-04-25T18:37:28.405Z,34.38
2023-04-25T18:39:55.248Z,34.51
2023-04-25T18:42:22.564Z,34.74
2023-04-25T18:44:49.477Z,34.82
2023-04-25T18:47:16.711Z,34.99
2023-04-25T18:49:43.705Z,34.92
2023-04-25T18:52:12.310Z,35.05
2023-04-25T18:54:39.327Z,35.36
2023-04-25T18:57:06.296Z,35.75
2023-04-25T18:59:33.537Z,36.23
2023-04-25T19:02:05.434Z,36.71
2023-04-25T19:04:32.771Z,36.98
2023-04-25T19:06:59.839Z,37.39
2023-04-25T19:09:26.867Z,37.56
2023-04-25T19:11:54.206Z,37.69
2023-04-25T19:14:21.113Z,37.78
2023-04-25T19:16:48.185Z,37.92
2023-04-25T19:19:15.129Z,38.10
2023-04-25T19:21:42.042Z,38.38
2023-04-25T19:24:09.310Z,38.81
2023-04-25T19:26:36.705Z,39.18
2023-04-25T19:29:06.027Z,39.73
2023-04-25T19:31:34.996Z,40.41
2023-04-25T19:34:02.032Z,40.86
2023-04-25T19:36:28.907Z,41.54
2023-04-25T19:39:02.100Z,42.31
2023-04-25T19:41:29.532Z,42.86
2023-04-25T19:43:56.364Z,43.30
2023-04-25T19:46:23.746Z,43.50
2023-04-25T19:48:50.658Z,43.59
2023-04-25T19:51:17.770Z,43.72
2023-04-25T19:53:44.729Z,43.82
2023-04-25T19:56:11.573Z,43.80
2023-04-25T19:58:38.396Z,44.20
2023-04-25T20:01:05.431Z,44.83
2023-04-25T20:03:32.379Z,45.36
2023-04-25T20:05:59.317Z,45.93
2023-04-25T20:08:26.394Z,46.36
2023-04-25T20:10:53.339Z,46.55
2023-04-25T20:13:20.277Z,46.51
2023-04-25T20:15:47.116Z,46.32
2023-04-25T20:18:14.066Z,46.09
2023-04-25T20:20:41.129Z,45.80
2023-04-25T20:23:07.961Z,45.32
2023-04-25T20:25:34.853Z,44.77
2023-04-25T20:28:01.675Z,44.47
2023-04-25T20:30:28.516Z,44.39
2023-04-25T20:32:55.353Z,44.13
2023-04-25T20:35:23.057Z,44.02
2023-04-25T20:37:50.977Z,43.87
2023-04-25T20:40:18.340Z,43.72
2023-04-25T20:42:46.123Z,43.59
2023-04-25T20:45:14.640Z,43.53
2023-04-25T20:47:42.812Z,43.61
2023-04-25T20:50:11.062Z,43.79
2023-04-25T20:52:38.765Z,43.90
2023-04-25T20:55:06.977Z,44.06
2023-04-25T20:57:33.809Z,44.11
2023-04-25T21:00:00.695Z,44.24
2023-04-25T21:02:27.687Z,44.30
2023-04-25T21:04:54.699Z,44.37
2023-04-25T21:07:21.709Z,44.46
2023-04-25T21:09:48.707Z,44.50
2023-04-25T21:12:15.543Z,44.46
2023-04-25T21:14:42.349Z,44.48
2023-04-25T21:17:09.284Z,44.49
2023-04-25T21:19:36.101Z,44.54
2023-04-25T21:22:03.753Z,44.51
2023-04-25T21:24:33.211Z,44.47
2023-04-25T21:27:00.147Z,44.64
2023-04-25T21:29:27.063Z,44.64
2023-04-25T21:31:53.928Z,44.78
2023-04-25T21:34:20.850Z,44.75
2023-04-25T21:36:48.549Z,44.93
2023-04-25T21:39:15.493Z,45.04
2023-04-25T21:41:44.364Z,45.18
2023-04-25T21:44:12.698Z,45.34
2023-04-25T21:46:39.662Z,45.71
2023-04-25T21:49:07.091Z,45.98
2023-04-25T21:51:34.033Z,46.37
2023-04-25T21:54:05.216Z,46.53
2023-04-25T21:56:32.980Z,46.77
2023-04-25T21:58:59.848Z,47.13
2023-04-25T22:01:27.746Z,47.35
2023-04-25T22:03:55.106Z,47.48
2023-04-25T22:06:22.221Z,47.62
2023-04-25T22:08:49.129Z,47.63
2023-04-25T22:11:16.061Z,47.75
2023-04-25T22:13:43.035Z,47.95
2023-04-25T22:16:12.307Z,48.25
2023-04-25T22:18:40.496Z,48.42
2023-04-25T22:21:07.442Z,48.66
2023-04-25T22:23:35.023Z,48.89
2023-04-25T22:26:02.661Z,49.03
2023-04-25T22:28:29.683Z,49.13
2023-04-25T22:30:56.531Z,49.27
2023-04-25T22:33:23.385Z,49.52
2023-04-25T22:35:50.329Z,49.75
2023-04-25T22:38:17.321Z,49.94
2023-04-25T22:40:47.965Z,49.99
2023-04-25T22:43:15.932Z,50.15
2023-04-25T22:45:42.870Z,50.43
2023-04-25T22:48:09.957Z,50.59
2023-04-25T22:50:39.798Z,50.75
2023-04-25T22:53:07.589Z,50.95
2023-04-25T22:55:36.086Z,51.12
2023-04-25T22:58:08.648Z,51.33
2023-04-25T23:00:36.002Z,51.39
2023-04-25T23:03:04.064Z,51.56
2023-04-25T23:05:32.821Z,51.62
2023-04-25T23:07:59.839Z,51.59
2023-04-25T23:10:28.227Z,51.75
2023-04-25T23:12:58.113Z,51.94
2023-04-25T23:15:31.122Z,52.02
2023-04-25T23:17:58.453Z,52.15
2023-04-25T23:20:25.480Z,52.27
2023-04-25T23:22:52.723Z,52.28
2023-04-25T23:25:19.548Z,52.28
2023-04-25T23:27:46.412Z,52.41
2023-04-25T23:30:13.583Z,52.53
2023-04-25T23:32:40.607Z,52.56
2023-04-25T23:35:07.886Z,52.68
2023-04-25T23:37:35.723Z,52.75
2023-04-25T23:40:08.394Z,52.91
2023-04-25T23:42:36.523Z,52.98
2023-04-25T23:45:05.163Z,53.09
2023-04-25T23:47:32.492Z,53.14
2023-04-25T23:49:59.447Z,53.28
2023-04-25T23:52:27.968Z,53.45
2023-04-25T23:54:55.668Z,53.52
2023-04-25T23:57:22.928Z,53.55
2023-04-25T23:59:49.798Z,53.64
